sensor_id;sensor_type;location;lat;lon;timestamp;P1;durP1;ratioP1;P2;durP2;ratioP2
6723;SDS011;3399;52.530;13.304;2023-04-28T00:01:17;15.57;;;10.17;;
6723;SDS011;3399;52.530;13.304;2023-04-28T00:03:42;14.93;;;10.80;;
6723;SDS011;3399;52.530;13.304;2023-04-28T00:06:08;14.87;;;10.33;;
6723;SDS011;3399;52.530;13.304;2023-04-28T00:08:35;17.87;;;10.20;;
6723;SDS011;3399;52.530;13.304;2023-04-28T00:11:01;14.20;;;10.17;;
6723;SDS011;3399;52.530;13.304;2023-04-28T00:13:26;19.20;;;11.57;;
6723;SDS011;3399;52.530;13.304;2023-04-28T00:15:52;11.50;;;9.00;;
6723;SDS011;3399;52.530;13.304;2023-04-28T00:18:18;13.23;;;8.13;;
6723;SDS011;3399;52.530;13.304;2023-04-28T00:20:44;14.57;;;8.77;;
6723;SDS011;3399;52.530;13.304;2023-04-28T00:23:09;13.13;;;8.37;;
6723;SDS011;3399;52.530;13.304;2023-04-28T00:25:35;13.33;;;8.77;;
6723;SDS011;3399;52.530;13.304;2023-04-28T00:28:00;12.73;;;6.77;;
6723;SDS011;3399;52.530;13.304;2023-04-28T00:30:28;9.77;;;7.37;;
6723;SDS011;3399;52.530;13.304;2023-04-28T00:32:54;11.90;;;7.17;;
6723;SDS011;3399;52.530;13.304;2023-04-28T00:35:19;13.20;;;9.10;;
6723;SDS011;3399;52.530;13.304;2023-04-28T00:37:45;13.53;;;9.17;;
6723;SDS011;3399;52.530;13.304;2023-04-28T00:40:11;17.27;;;12.17;;
6723;SDS011;3399;52.530;13.304;2023-04-28T00:42:36;13.13;;;9.10;;
6723;SDS011;3399;52.530;13.304;2023-04-28T00:45:02;10.93;;;7.97;;
6723;SDS011;3399;52.530;13.304;2023-04-28T00:47:30;11.87;;;7.23;;
6723;SDS011;3399;52.530;13.304;2023-04-28T00:50:00;11.67;;;7.73;;
6723;SDS011;3399;52.530;13.304;2023-04-28T00:52:26;12.37;;;10.03;;
6723;SDS011;3399;52.530;13.304;2023-04-28T00:54:52;12.03;;;9.30;;
6723;SDS011;3399;52.530;13.304;2023-04-28T00:57:18;12.63;;;8.13;;
6723;SDS011;3399;52.530;13.304;2023-04-28T00:59:44;13.10;;;7.83;;
6723;SDS011;3399;52.530;13.304;2023-04-28T01:02:09;11.97;;;7.97;;
6723;SDS011;3399;52.530;13.304;2023-04-28T01:04:41;9.67;;;6.60;;
6723;SDS011;3399;52.530;13.304;2023-04-28T01:07:07;12.70;;;7.97;;
6723;SDS011;3399;52.530;13.304;2023-04-28T01:09:33;13.57;;;7.63;;
6723;SDS011;3399;52.530;13.304;2023-04-28T01:11:58;13.87;;;8.50;;
6723;SDS011;3399;52.530;13.304;2023-04-28T01:14:24;11.73;;;8.13;;
6723;SDS011;3399;52.530;13.304;2023-04-28T01:16:49;13.27;;;9.23;;
6723;SDS011;3399;52.530;13.304;2023-04-28T01:19:17;12.47;;;8.87;;
6723;SDS011;3399;52.530;13.304;2023-04-28T01:21:50;12.87;;;8.27;;
6723;SDS011;3399;52.530;13.304;2023-04-28T01:24:16;12.87;;;9.50;;
6723;SDS011;3399;52.530;13.304;2023-04-28T01:26:42;12.73;;;8.87;;
6723;SDS011;3399;52.530;13.304;2023-04-28T01:29:08;11.80;;;7.47;;
6723;SDS011;3399;52.530;13.304;2023-04-28T01:31:34;10.90;;;8.23;;
6723;SDS011;3399;52.530;13.304;2023-04-28T01:33:59;11.50;;;7.80;;
6723;SDS011;3399;52.530;13.304;2023-04-28T01:36:25;8.10;;;6.63;;
6723;SDS011;3399;52.530;13.304;2023-04-28T01:38:52;11.87;;;6.77;;
6723;SDS011;3399;52.530;13.304;2023-04-28T01:41:18;8.20;;;6.23;;
6723;SDS011;3399;52.530;13.304;2023-04-28T01:43:43;11.20;;;7.03;;
6723;SDS011;3399;52.530;13.304;2023-04-28T01:46:09;9.87;;;6.40;;
6723;SDS011;3399;52.530;13.304;2023-04-28T01:48:35;8.83;;;7.20;;
6723;SDS011;3399;52.530;13.304;2023-04-28T01:51:00;11.93;;;7.77;;
6723;SDS011;3399;52.530;13.304;2023-04-28T01:53:26;10.37;;;5.93;;
6723;SDS011;3399;52.530;13.304;2023-04-28T01:55:52;8.07;;;6.90;;
6723;SDS011;3399;52.530;13.304;2023-04-28T01:58:17;11.43;;;6.60;;
6723;SDS011;3399;52.530;13.304;2023-04-28T02:00:43;9.90;;;5.67;;
6723;SDS011;3399;52.530;13.304;2023-04-28T02:03:08;8.83;;;5.77;;
6723;SDS011;3399;52.530;13.304;2023-04-28T02:05:34;8.23;;;5.63;;
6723;SDS011;3399;52.530;13.304;2023-04-28T02:08:00;8.23;;;5.73;;
6723;SDS011;3399;52.530;13.304;2023-04-28T02:10:26;9.73;;;5.37;;
6723;SDS011;3399;52.530;13.304;2023-04-28T02:12:52;5.07;;;4.47;;
6723;SDS011;3399;52.530;13.304;2023-04-28T02:15:17;6.40;;;4.30;;
6723;SDS011;3399;52.530;13.304;2023-04-28T02:17:43;6.47;;;4.33;;
6723;SDS011;3399;52.530;13.304;2023-04-28T02:20:09;6.60;;;4.63;;
6723;SDS011;3399;52.530;13.304;2023-04-28T02:22:34;6.43;;;4.17;;
6723;SDS011;3399;52.530;13.304;2023-04-28T02:25:00;6.20;;;4.27;;
6723;SDS011;3399;52.530;13.304;2023-04-28T02:27:26;5.07;;;4.20;;
6723;SDS011;3399;52.530;13.304;2023-04-28T02:29:51;5.13;;;3.33;;
6723;SDS011;3399;52.530;13.304;2023-04-28T02:32:17;3.97;;;3.37;;
6723;SDS011;3399;52.530;13.304;2023-04-28T02:34:42;4.77;;;3.73;;
6723;SDS011;3399;52.530;13.304;2023-04-28T02:37:08;4.13;;;3.13;;
6723;SDS011;3399;52.530;13.304;2023-04-28T02:39:34;4.10;;;3.70;;
6723;SDS011;3399;52.530;13.304;2023-04-28T02:41:59;4.10;;;3.57;;
6723;SDS011;3399;52.530;13.304;2023-04-28T02:44:25;4.57;;;3.60;;
6723;SDS011;3399;52.530;13.304;2023-04-28T02:46:50;4.47;;;4.07;;
6723;SDS011;3399;52.530;13.304;2023-04-28T02:49:16;6.20;;;4.20;;
6723;SDS011;3399;52.530;13.304;2023-04-28T02:51:41;4.17;;;3.50;;
6723;SDS011;3399;52.530;13.304;2023-04-28T02:54:07;6.10;;;4.20;;
6723;SDS011;3399;52.530;13.304;2023-04-28T02:56:33;8.23;;;3.70;;
6723;SDS011;3399;52.530;13.304;2023-04-28T02:58:59;6.83;;;4.27;;
6723;SDS011;3399;52.530;13.304;2023-04-28T03:01:25;5.33;;;4.10;;
6723;SDS011;3399;52.530;13.304;2023-04-28T03:03:53;6.10;;;3.93;;
6723;SDS011;3399;52.530;13.304;2023-04-28T03:06:19;5.17;;;4.27;;
6723;SDS011;3399;52.530;13.304;2023-04-28T03:08:44;4.67;;;3.77;;
6723;SDS011;3399;52.530;13.304;2023-04-28T03:11:10;9.73;;;4.07;;
6723;SDS011;3399;52.530;13.304;2023-04-28T03:13:35;8.03;;;4.87;;
6723;SDS011;3399;52.530;13.304;2023-04-28T03:16:01;5.00;;;3.97;;
6723;SDS011;3399;52.530;13.304;2023-04-28T03:18:27;5.83;;;3.40;;
6723;SDS011;3399;52.530;13.304;2023-04-28T03:20:52;6.97;;;4.20;;
6723;SDS011;3399;52.530;13.304;2023-04-28T03:23:18;6.33;;;4.40;;
6723;SDS011;3399;52.530;13.304;2023-04-28T03:25:43;4.17;;;3.57;;
6723;SDS011;3399;52.530;13.304;2023-04-28T03:28:09;9.13;;;4.20;;
6723;SDS011;3399;52.530;13.304;2023-04-28T03:30:35;5.77;;;4.33;;
6723;SDS011;3399;52.530;13.304;2023-04-28T03:33:01;4.23;;;3.80;;
6723;SDS011;3399;52.530;13.304;2023-04-28T03:35:27;4.87;;;4.10;;
6723;SDS011;3399;52.530;13.304;2023-04-28T03:37:52;7.27;;;3.83;;
6723;SDS011;3399;52.530;13.304;2023-04-28T03:40:18;7.03;;;4.10;;
6723;SDS011;3399;52.530;13.304;2023-04-28T03:42:43;4.23;;;3.83;;
6723;SDS011;3399;52.530;13.304;2023-04-28T03:45:09;12.43;;;4.50;;
6723;SDS011;3399;52.530;13.304;2023-04-28T03:47:35;5.10;;;3.63;;
6723;SDS011;3399;52.530;13.304;2023-04-28T03:50:00;7.40;;;4.90;;
6723;SDS011;3399;52.530;13.304;2023-04-28T03:52:26;6.37;;;4.70;;
6723;SDS011;3399;52.530;13.304;2023-04-28T03:54:52;8.30;;;4.53;;
6723;SDS011;3399;52.530;13.304;2023-04-28T03:57:17;4.73;;;3.60;;
6723;SDS011;3399;52.530;13.304;2023-04-28T03:59:42;12.00;;;4.60;;
6723;SDS011;3399;52.530;13.304;2023-04-28T04:02:08;8.03;;;4.00;;
6723;SDS011;3399;52.530;13.304;2023-04-28T04:04:33;6.27;;;4.13;;
6723;SDS011;3399;52.530;13.304;2023-04-28T04:06:59;4.13;;;3.20;;
6723;SDS011;3399;52.530;13.304;2023-04-28T04:09:25;8.30;;;4.33;;
6723;SDS011;3399;52.530;13.304;2023-04-28T04:11:50;5.17;;;3.47;;
6723;SDS011;3399;52.530;13.304;2023-04-28T04:14:16;7.53;;;4.33;;
6723;SDS011;3399;52.530;13.304;2023-04-28T04:16:42;4.27;;;3.30;;
6723;SDS011;3399;52.530;13.304;2023-04-28T04:19:07;5.60;;;4.10;;
6723;SDS011;3399;52.530;13.304;2023-04-28T04:21:33;5.80;;;4.00;;
6723;SDS011;3399;52.530;13.304;2023-04-28T04:23:58;5.00;;;3.70;;
6723;SDS011;3399;52.530;13.304;2023-04-28T04:26:24;3.80;;;3.50;;
6723;SDS011;3399;52.530;13.304;2023-04-28T04:28:49;5.27;;;4.10;;
6723;SDS011;3399;52.530;13.304;2023-04-28T04:31:15;9.03;;;4.57;;
6723;SDS011;3399;52.530;13.304;2023-04-28T04:33:42;7.57;;;4.00;;
6723;SDS011;3399;52.530;13.304;2023-04-28T04:36:07;5.83;;;4.30;;
6723;SDS011;3399;52.530;13.304;2023-04-28T04:38:33;5.00;;;3.80;;
6723;SDS011;3399;52.530;13.304;2023-04-28T04:40:58;5.90;;;4.23;;
6723;SDS011;3399;52.530;13.304;2023-04-28T04:43:24;6.83;;;4.20;;
6723;SDS011;3399;52.530;13.304;2023-04-28T04:45:50;6.27;;;3.90;;
6723;SDS011;3399;52.530;13.304;2023-04-28T04:48:15;6.73;;;4.70;;
6723;SDS011;3399;52.530;13.304;2023-04-28T04:50:41;6.30;;;3.87;;
6723;SDS011;3399;52.530;13.304;2023-04-28T04:53:07;5.67;;;3.80;;
6723;SDS011;3399;52.530;13.304;2023-04-28T04:55:33;4.40;;;4.00;;
6723;SDS011;3399;52.530;13.304;2023-04-28T04:57:58;4.67;;;3.47;;
6723;SDS011;3399;52.530;13.304;2023-04-28T05:00:24;6.93;;;3.70;;
6723;SDS011;3399;52.530;13.304;2023-04-28T05:02:49;10.23;;;4.07;;
6723;SDS011;3399;52.530;13.304;2023-04-28T05:05:15;6.53;;;4.83;;
6723;SDS011;3399;52.530;13.304;2023-04-28T05:07:41;4.83;;;4.33;;
6723;SDS011;3399;52.530;13.304;2023-04-28T05:10:07;4.73;;;3.83;;
6723;SDS011;3399;52.530;13.304;2023-04-28T05:12:35;8.00;;;4.37;;
6723;SDS011;3399;52.530;13.304;2023-04-28T05:15:01;5.73;;;4.13;;
6723;SDS011;3399;52.530;13.304;2023-04-28T05:17:27;5.33;;;4.13;;
6723;SDS011;3399;52.530;13.304;2023-04-28T05:19:52;8.67;;;5.00;;
6723;SDS011;3399;52.530;13.304;2023-04-28T05:22:17;3.77;;;3.43;;
6723;SDS011;3399;52.530;13.304;2023-04-28T05:24:43;10.23;;;3.97;;
6723;SDS011;3399;52.530;13.304;2023-04-28T05:27:08;5.37;;;3.80;;
6723;SDS011;3399;52.530;13.304;2023-04-28T05:29:34;9.10;;;4.37;;
6723;SDS011;3399;52.530;13.304;2023-04-28T05:31:59;11.70;;;4.10;;
6723;SDS011;3399;52.530;13.304;2023-04-28T05:34:25;6.37;;;5.60;;
6723;SDS011;3399;52.530;13.304;2023-04-28T05:36:51;5.97;;;4.30;;
6723;SDS011;3399;52.530;13.304;2023-04-28T05:39:17;7.07;;;3.70;;
6723;SDS011;3399;52.530;13.304;2023-04-28T05:41:42;8.37;;;4.30;;
6723;SDS011;3399;52.530;13.304;2023-04-28T05:44:08;7.77;;;4.53;;
6723;SDS011;3399;52.530;13.304;2023-04-28T05:46:33;10.50;;;4.83;;
6723;SDS011;3399;52.530;13.304;2023-04-28T05:48:59;5.93;;;3.70;;
6723;SDS011;3399;52.530;13.304;2023-04-28T05:51:24;5.93;;;3.90;;
6723;SDS011;3399;52.530;13.304;2023-04-28T05:53:51;10.30;;;4.80;;
6723;SDS011;3399;52.530;13.304;2023-04-28T05:56:16;4.23;;;3.77;;
6723;SDS011;3399;52.530;13.304;2023-04-28T05:58:42;5.77;;;3.40;;
6723;SDS011;3399;52.530;13.304;2023-04-28T06:01:11;5.63;;;3.70;;
6723;SDS011;3399;52.530;13.304;2023-04-28T06:03:37;9.27;;;4.77;;
6723;SDS011;3399;52.530;13.304;2023-04-28T06:06:05;5.97;;;3.87;;
6723;SDS011;3399;52.530;13.304;2023-04-28T06:08:31;4.63;;;3.80;;
6723;SDS011;3399;52.530;13.304;2023-04-28T06:10:57;8.33;;;4.40;;
6723;SDS011;3399;52.530;13.304;2023-04-28T06:13:22;6.93;;;3.93;;
6723;SDS011;3399;52.530;13.304;2023-04-28T06:15:48;3.93;;;3.63;;
6723;SDS011;3399;52.530;13.304;2023-04-28T06:18:13;4.77;;;3.73;;
6723;SDS011;3399;52.530;13.304;2023-04-28T06:20:40;5.00;;;4.53;;
6723;SDS011;3399;52.530;13.304;2023-04-28T06:23:06;4.20;;;3.77;;
6723;SDS011;3399;52.530;13.304;2023-04-28T06:25:33;4.90;;;3.50;;
6723;SDS011;3399;52.530;13.304;2023-04-28T06:27:59;4.97;;;3.33;;
6723;SDS011;3399;52.530;13.304;2023-04-28T06:30:24;4.40;;;3.20;;
6723;SDS011;3399;52.530;13.304;2023-04-28T06:32:50;5.70;;;3.70;;
6723;SDS011;3399;52.530;13.304;2023-04-28T06:35:15;6.23;;;3.80;;
6723;SDS011;3399;52.530;13.304;2023-04-28T06:37:41;7.10;;;4.10;;
6723;SDS011;3399;52.530;13.304;2023-04-28T06:40:07;6.30;;;4.37;;
6723;SDS011;3399;52.530;13.304;2023-04-28T06:42:34;6.63;;;4.10;;
6723;SDS011;3399;52.530;13.304;2023-04-28T06:44:59;5.23;;;4.27;;
6723;SDS011;3399;52.530;13.304;2023-04-28T06:47:25;7.57;;;4.30;;
6723;SDS011;3399;52.530;13.304;2023-04-28T06:49:51;8.53;;;4.13;;
6723;SDS011;3399;52.530;13.304;2023-04-28T06:52:16;4.17;;;3.47;;
6723;SDS011;3399;52.530;13.304;2023-04-28T06:54:42;9.27;;;3.83;;
6723;SDS011;3399;52.530;13.304;2023-04-28T06:57:07;8.73;;;4.07;;
6723;SDS011;3399;52.530;13.304;2023-04-28T06:59:33;6.07;;;3.53;;
6723;SDS011;3399;52.530;13.304;2023-04-28T07:01:59;5.47;;;3.90;;
6723;SDS011;3399;52.530;13.304;2023-04-28T07:04:24;8.13;;;4.67;;
6723;SDS011;3399;52.530;13.304;2023-04-28T07:06:50;8.23;;;4.50;;
6723;SDS011;3399;52.530;13.304;2023-04-28T07:09:16;3.77;;;3.40;;
6723;SDS011;3399;52.530;13.304;2023-04-28T07:11:42;5.63;;;4.07;;
6723;SDS011;3399;52.530;13.304;2023-04-28T07:14:08;5.03;;;3.57;;
6723;SDS011;3399;52.530;13.304;2023-04-28T07:16:33;4.80;;;3.93;;
6723;SDS011;3399;52.530;13.304;2023-04-28T07:19:00;7.83;;;4.07;;
6723;SDS011;3399;52.530;13.304;2023-04-28T07:21:25;4.77;;;3.60;;
6723;SDS011;3399;52.530;13.304;2023-04-28T07:23:52;8.23;;;4.03;;
6723;SDS011;3399;52.530;13.304;2023-04-28T07:26:20;7.80;;;3.77;;
6723;SDS011;3399;52.530;13.304;2023-04-28T07:28:46;4.23;;;3.70;;
6723;SDS011;3399;52.530;13.304;2023-04-28T07:31:12;5.40;;;3.50;;
6723;SDS011;3399;52.530;13.304;2023-04-28T07:33:38;8.23;;;3.33;;
6723;SDS011;3399;52.530;13.304;2023-04-28T07:36:05;5.40;;;3.33;;
6723;SDS011;3399;52.530;13.304;2023-04-28T07:38:32;8.20;;;4.33;;
6723;SDS011;3399;52.530;13.304;2023-04-28T07:40:59;6.40;;;3.47;;
6723;SDS011;3399;52.530;13.304;2023-04-28T07:43:25;5.47;;;3.60;;
6723;SDS011;3399;52.530;13.304;2023-04-28T07:45:50;6.70;;;3.80;;
6723;SDS011;3399;52.530;13.304;2023-04-28T07:48:16;5.40;;;4.03;;
6723;SDS011;3399;52.530;13.304;2023-04-28T07:50:42;5.10;;;3.60;;
6723;SDS011;3399;52.530;13.304;2023-04-28T07:53:07;6.50;;;3.53;;
6723;SDS011;3399;52.530;13.304;2023-04-28T07:55:33;4.57;;;2.90;;
6723;SDS011;3399;52.530;13.304;2023-04-28T07:57:58;9.70;;;3.17;;
6723;SDS011;3399;52.530;13.304;2023-04-28T08:00:24;7.43;;;3.03;;
6723;SDS011;3399;52.530;13.304;2023-04-28T08:02:50;3.40;;;3.10;;
6723;SDS011;3399;52.530;13.304;2023-04-28T08:05:15;5.77;;;3.17;;
6723;SDS011;3399;52.530;13.304;2023-04-28T08:07:41;4.33;;;3.50;;
6723;SDS011;3399;52.530;13.304;2023-04-28T08:10:08;5.37;;;3.90;;
6723;SDS011;3399;52.530;13.304;2023-04-28T08:12:34;5.20;;;4.40;;
6723;SDS011;3399;52.530;13.304;2023-04-28T08:15:00;5.60;;;3.93;;
6723;SDS011;3399;52.530;13.304;2023-04-28T08:17:26;5.50;;;4.07;;
6723;SDS011;3399;52.530;13.304;2023-04-28T08:19:51;7.33;;;3.43;;
6723;SDS011;3399;52.530;13.304;2023-04-28T08:22:17;9.40;;;3.83;;
6723;SDS011;3399;52.530;13.304;2023-04-28T08:24:42;5.00;;;3.57;;
6723;SDS011;3399;52.530;13.304;2023-04-28T08:27:08;4.37;;;2.63;;
6723;SDS011;3399;52.530;13.304;2023-04-28T08:29:33;10.10;;;3.97;;
6723;SDS011;3399;52.530;13.304;2023-04-28T08:31:59;6.33;;;4.93;;
6723;SDS011;3399;52.530;13.304;2023-04-28T08:34:28;4.30;;;3.70;;
6723;SDS011;3399;52.530;13.304;2023-04-28T08:36:54;5.00;;;4.20;;
6723;SDS011;3399;52.530;13.304;2023-04-28T08:39:19;5.13;;;4.07;;
6723;SDS011;3399;52.530;13.304;2023-04-28T08:41:47;6.57;;;4.00;;
6723;SDS011;3399;52.530;13.304;2023-04-28T08:44:13;5.37;;;3.93;;
6723;SDS011;3399;52.530;13.304;2023-04-28T08:46:42;4.77;;;3.33;;
6723;SDS011;3399;52.530;13.304;2023-04-28T08:49:12;4.43;;;3.43;;
6723;SDS011;3399;52.530;13.304;2023-04-28T08:51:54;7.03;;;3.53;;
6723;SDS011;3399;52.530;13.304;2023-04-28T08:54:22;6.63;;;4.17;;
6723;SDS011;3399;52.530;13.304;2023-04-28T08:56:52;7.00;;;4.47;;
6723;SDS011;3399;52.530;13.304;2023-04-28T08:59:18;6.33;;;4.60;;
6723;SDS011;3399;52.530;13.304;2023-04-28T09:01:47;5.37;;;3.70;;
6723;SDS011;3399;52.530;13.304;2023-04-28T09:04:13;6.17;;;4.30;;
6723;SDS011;3399;52.530;13.304;2023-04-28T09:06:41;7.17;;;3.63;;
6723;SDS011;3399;52.530;13.304;2023-04-28T09:09:28;6.47;;;3.53;;
6723;SDS011;3399;52.530;13.304;2023-04-28T09:11:55;5.77;;;3.87;;
6723;SDS011;3399;52.530;13.304;2023-04-28T09:14:23;6.50;;;3.93;;
6723;SDS011;3399;52.530;13.304;2023-04-28T09:16:49;6.73;;;4.70;;
6723;SDS011;3399;52.530;13.304;2023-04-28T09:19:15;5.73;;;3.53;;
6723;SDS011;3399;52.530;13.304;2023-04-28T09:21:47;5.30;;;3.20;;
6723;SDS011;3399;52.530;13.304;2023-04-28T09:24:25;7.90;;;3.67;;
6723;SDS011;3399;52.530;13.304;2023-04-28T09:27:01;6.23;;;3.83;;
6723;SDS011;3399;52.530;13.304;2023-04-28T09:29:28;5.87;;;3.80;;
6723;SDS011;3399;52.530;13.304;2023-04-28T09:31:54;7.03;;;3.73;;
6723;SDS011;3399;52.530;13.304;2023-04-28T09:34:43;6.47;;;4.33;;
6723;SDS011;3399;52.530;13.304;2023-04-28T09:37:20;5.93;;;4.70;;
6723;SDS011;3399;52.530;13.304;2023-04-28T09:39:51;5.40;;;3.87;;
6723;SDS011;3399;52.530;13.304;2023-04-28T09:42:34;8.47;;;4.30;;
6723;SDS011;3399;52.530;13.304;2023-04-28T09:47:33;5.40;;;4.37;;
6723;SDS011;3399;52.530;13.304;2023-04-28T09:50:01;7.40;;;3.90;;
6723;SDS011;3399;52.530;13.304;2023-04-28T09:52:28;7.73;;;4.40;;
6723;SDS011;3399;52.530;13.304;2023-04-28T09:54:55;5.83;;;4.80;;
6723;SDS011;3399;52.530;13.304;2023-04-28T09:57:21;4.30;;;3.90;;
6723;SDS011;3399;52.530;13.304;2023-04-28T09:59:48;7.60;;;3.97;;
6723;SDS011;3399;52.530;13.304;2023-04-28T10:02:16;14.30;;;4.47;;
6723;SDS011;3399;52.530;13.304;2023-04-28T10:04:46;10.70;;;4.37;;
6723;SDS011;3399;52.530;13.304;2023-04-28T10:07:13;11.57;;;4.83;;
6723;SDS011;3399;52.530;13.304;2023-04-28T10:09:41;11.17;;;4.67;;
6723;SDS011;3399;52.530;13.304;2023-04-28T10:12:13;6.93;;;4.47;;
6723;SDS011;3399;52.530;13.304;2023-04-28T10:14:40;6.40;;;4.23;;
6723;SDS011;3399;52.530;13.304;2023-04-28T10:17:06;9.27;;;4.67;;
6723;SDS011;3399;52.530;13.304;2023-04-28T10:19:32;7.67;;;4.90;;
6723;SDS011;3399;52.530;13.304;2023-04-28T10:25:02;10.10;;;4.43;;
6723;SDS011;3399;52.530;13.304;2023-04-28T10:27:43;4.63;;;4.20;;
6723;SDS011;3399;52.530;13.304;2023-04-28T10:32:41;5.20;;;4.47;;
6723;SDS011;3399;52.530;13.304;2023-04-28T10:40:46;6.23;;;4.20;;
6723;SDS011;3399;52.530;13.304;2023-04-28T10:46:06;6.17;;;3.93;;
6723;SDS011;3399;52.530;13.304;2023-04-28T10:56:14;7.33;;;3.87;;
6723;SDS011;3399;52.530;13.304;2023-04-28T10:58:45;4.63;;;4.20;;
6723;SDS011;3399;52.530;13.304;2023-04-28T11:03:51;4.77;;;3.97;;
6723;SDS011;3399;52.530;13.304;2023-04-28T11:09:00;8.70;;;4.70;;
6723;SDS011;3399;52.530;13.304;2023-04-28T11:19:24;7.93;;;4.70;;
6723;SDS011;3399;52.530;13.304;2023-04-28T11:21:51;6.33;;;4.03;;
6723;SDS011;3399;52.530;13.304;2023-04-28T11:24:18;8.87;;;4.77;;
6723;SDS011;3399;52.530;13.304;2023-04-28T11:26:44;5.00;;;4.13;;
6723;SDS011;3399;52.530;13.304;2023-04-28T11:29:10;9.57;;;4.13;;
6723;SDS011;3399;52.530;13.304;2023-04-28T11:31:36;7.73;;;5.10;;
6723;SDS011;3399;52.530;13.304;2023-04-28T11:34:06;7.47;;;4.63;;
6723;SDS011;3399;52.530;13.304;2023-04-28T11:36:36;7.70;;;5.33;;
6723;SDS011;3399;52.530;13.304;2023-04-28T11:39:07;8.87;;;4.73;;
6723;SDS011;3399;52.530;13.304;2023-04-28T11:41:34;6.53;;;4.97;;
6723;SDS011;3399;52.530;13.304;2023-04-28T11:44:11;9.57;;;5.10;;
6723;SDS011;3399;52.530;13.304;2023-04-28T11:46:44;5.70;;;4.23;;
6723;SDS011;3399;52.530;13.304;2023-04-28T11:49:14;6.60;;;4.33;;
6723;SDS011;3399;52.530;13.304;2023-04-28T11:51:40;6.90;;;5.20;;
6723;SDS011;3399;52.530;13.304;2023-04-28T11:54:07;4.93;;;4.43;;
6723;SDS011;3399;52.530;13.304;2023-04-28T11:56:36;6.70;;;5.07;;
6723;SDS011;3399;52.530;13.304;2023-04-28T11:59:12;8.33;;;5.47;;
6723;SDS011;3399;52.530;13.304;2023-04-28T12:01:44;6.43;;;4.47;;
6723;SDS011;3399;52.530;13.304;2023-04-28T12:07:01;5.23;;;4.73;;
6723;SDS011;3399;52.530;13.304;2023-04-28T12:09:27;9.30;;;5.70;;
6723;SDS011;3399;52.530;13.304;2023-04-28T12:11:57;8.07;;;4.73;;
6723;SDS011;3399;52.530;13.304;2023-04-28T12:14:24;8.33;;;5.70;;
6723;SDS011;3399;52.530;13.304;2023-04-28T12:16:50;8.30;;;5.97;;
6723;SDS011;3399;52.530;13.304;2023-04-28T12:19:16;11.63;;;5.93;;
6723;SDS011;3399;52.530;13.304;2023-04-28T12:21:42;8.10;;;5.27;;
6723;SDS011;3399;52.530;13.304;2023-04-28T12:24:15;8.67;;;4.40;;
6723;SDS011;3399;52.530;13.304;2023-04-28T12:26:45;6.00;;;5.00;;
6723;SDS011;3399;52.530;13.304;2023-04-28T12:32:00;5.03;;;4.63;;
6723;SDS011;3399;52.530;13.304;2023-04-28T12:34:26;7.70;;;4.80;;
6723;SDS011;3399;52.530;13.304;2023-04-28T12:36:53;7.23;;;5.30;;
6723;SDS011;3399;52.530;13.304;2023-04-28T12:39:18;5.83;;;4.43;;
6723;SDS011;3399;52.530;13.304;2023-04-28T12:41:46;6.47;;;4.80;;
6723;SDS011;3399;52.530;13.304;2023-04-28T12:44:12;6.80;;;5.00;;
6723;SDS011;3399;52.530;13.304;2023-04-28T12:46:40;5.23;;;4.73;;
6723;SDS011;3399;52.530;13.304;2023-04-28T12:49:05;5.50;;;5.00;;
6723;SDS011;3399;52.530;13.304;2023-04-28T12:51:31;10.50;;;6.07;;
6723;SDS011;3399;52.530;13.304;2023-04-28T12:53:58;8.33;;;5.27;;
6723;SDS011;3399;52.530;13.304;2023-04-28T12:56:24;6.67;;;4.57;;
6723;SDS011;3399;52.530;13.304;2023-04-28T12:58:50;9.40;;;5.03;;
6723;SDS011;3399;52.530;13.304;2023-04-28T13:01:16;7.60;;;4.50;;
6723;SDS011;3399;52.530;13.304;2023-04-28T13:03:42;7.83;;;5.23;;
6723;SDS011;3399;52.530;13.304;2023-04-28T13:06:08;6.50;;;4.33;;
6723;SDS011;3399;52.530;13.304;2023-04-28T13:08:35;9.77;;;4.10;;
6723;SDS011;3399;52.530;13.304;2023-04-28T13:11:00;8.37;;;4.83;;
6723;SDS011;3399;52.530;13.304;2023-04-28T13:13:28;8.40;;;5.07;;
6723;SDS011;3399;52.530;13.304;2023-04-28T13:15:53;6.13;;;4.53;;
6723;SDS011;3399;52.530;13.304;2023-04-28T13:18:19;6.93;;;5.07;;
6723;SDS011;3399;52.530;13.304;2023-04-28T13:20:44;7.00;;;5.07;;
6723;SDS011;3399;52.530;13.304;2023-04-28T13:23:10;7.67;;;4.53;;
6723;SDS011;3399;52.530;13.304;2023-04-28T13:25:35;6.03;;;4.70;;
6723;SDS011;3399;52.530;13.304;2023-04-28T13:28:01;6.63;;;4.87;;
6723;SDS011;3399;52.530;13.304;2023-04-28T13:30:27;7.53;;;4.97;;
6723;SDS011;3399;52.530;13.304;2023-04-28T13:32:52;8.03;;;5.07;;
6723;SDS011;3399;52.530;13.304;2023-04-28T13:35:18;8.90;;;5.03;;
6723;SDS011;3399;52.530;13.304;2023-04-28T13:37:44;7.40;;;5.13;;
6723;SDS011;3399;52.530;13.304;2023-04-28T13:40:10;7.20;;;3.90;;
6723;SDS011;3399;52.530;13.304;2023-04-28T13:42:36;13.77;;;4.30;;
6723;SDS011;3399;52.530;13.304;2023-04-28T13:45:02;6.17;;;4.17;;
6723;SDS011;3399;52.530;13.304;2023-04-28T13:47:28;7.40;;;5.20;;
6723;SDS011;3399;52.530;13.304;2023-04-28T13:49:56;6.73;;;4.90;;
6723;SDS011;3399;52.530;13.304;2023-04-28T13:52:24;5.97;;;5.00;;
6723;SDS011;3399;52.530;13.304;2023-04-28T13:54:50;6.67;;;5.00;;
6723;SDS011;3399;52.530;13.304;2023-04-28T13:57:16;8.73;;;4.60;;
6723;SDS011;3399;52.530;13.304;2023-04-28T13:59:41;5.77;;;4.73;;
6723;SDS011;3399;52.530;13.304;2023-04-28T14:02:07;9.87;;;5.07;;
6723;SDS011;3399;52.530;13.304;2023-04-28T14:04:35;6.63;;;4.90;;
6723;SDS011;3399;52.530;13.304;2023-04-28T14:07:01;8.63;;;5.10;;
6723;SDS011;3399;52.530;13.304;2023-04-28T14:09:29;8.63;;;4.97;;
6723;SDS011;3399;52.530;13.304;2023-04-28T14:11:56;5.93;;;4.77;;
6723;SDS011;3399;52.530;13.304;2023-04-28T14:14:22;5.87;;;4.53;;
6723;SDS011;3399;52.530;13.304;2023-04-28T14:16:48;6.10;;;5.13;;
6723;SDS011;3399;52.530;13.304;2023-04-28T14:19:13;7.73;;;4.80;;
6723;SDS011;3399;52.530;13.304;2023-04-28T14:21:43;10.17;;;4.97;;
6723;SDS011;3399;52.530;13.304;2023-04-28T14:24:09;7.73;;;5.60;;
6723;SDS011;3399;52.530;13.304;2023-04-28T14:26:35;5.40;;;4.90;;
6723;SDS011;3399;52.530;13.304;2023-04-28T14:29:01;6.10;;;4.77;;
6723;SDS011;3399;52.530;13.304;2023-04-28T14:31:26;9.20;;;5.80;;
6723;SDS011;3399;52.530;13.304;2023-04-28T14:33:52;7.17;;;4.80;;
6723;SDS011;3399;52.530;13.304;2023-04-28T14:36:18;8.80;;;5.10;;
6723;SDS011;3399;52.530;13.304;2023-04-28T14:38:44;7.67;;;5.20;;
6723;SDS011;3399;52.530;13.304;2023-04-28T14:41:10;9.23;;;5.77;;
6723;SDS011;3399;52.530;13.304;2023-04-28T14:43:36;6.77;;;5.67;;
6723;SDS011;3399;52.530;13.304;2023-04-28T14:46:02;6.27;;;4.37;;
6723;SDS011;3399;52.530;13.304;2023-04-28T14:48:28;9.40;;;5.40;;
6723;SDS011;3399;52.530;13.304;2023-04-28T14:50:56;8.80;;;5.07;;
6723;SDS011;3399;52.530;13.304;2023-04-28T14:53:22;7.37;;;5.63;;
6723;SDS011;3399;52.530;13.304;2023-04-28T14:55:48;5.90;;;5.13;;
6723;SDS011;3399;52.530;13.304;2023-04-28T14:58:13;8.00;;;4.93;;
6723;SDS011;3399;52.530;13.304;2023-04-28T15:00:39;7.03;;;5.67;;
6723;SDS011;3399;52.530;13.304;2023-04-28T15:03:05;8.87;;;4.70;;
6723;SDS011;3399;52.530;13.304;2023-04-28T15:05:31;8.43;;;5.20;;
6723;SDS011;3399;52.530;13.304;2023-04-28T15:07:56;6.07;;;5.03;;
6723;SDS011;3399;52.530;13.304;2023-04-28T15:10:22;7.63;;;5.30;;
6723;SDS011;3399;52.530;13.304;2023-04-28T15:12:48;7.87;;;5.10;;
6723;SDS011;3399;52.530;13.304;2023-04-28T15:15:13;6.20;;;4.20;;
6723;SDS011;3399;52.530;13.304;2023-04-28T15:17:39;8.23;;;5.13;;
6723;SDS011;3399;52.530;13.304;2023-04-28T15:20:05;6.37;;;4.97;;
6723;SDS011;3399;52.530;13.304;2023-04-28T15:22:31;5.90;;;4.97;;
6723;SDS011;3399;52.530;13.304;2023-04-28T15:24:57;6.87;;;4.87;;
6723;SDS011;3399;52.530;13.304;2023-04-28T15:27:24;8.80;;;5.27;;
6723;SDS011;3399;52.530;13.304;2023-04-28T15:29:50;7.50;;;5.50;;
6723;SDS011;3399;52.530;13.304;2023-04-28T15:32:15;8.33;;;4.87;;
6723;SDS011;3399;52.530;13.304;2023-04-28T15:34:41;8.80;;;5.33;;
6723;SDS011;3399;52.530;13.304;2023-04-28T15:37:37;7.60;;;5.13;;